Time;durP1;ratioP1;P1;durP2;ratioP2;P2;SDS_P1;SDS_P2;PMS_P1;PMS_P2;Temp;Humidity;BMP_temperature;BMP_pressure;BME280_temperature;BME280_humidity;BME280_pressure;Samples;Min_cycle;Max_cycle;Signal;HPM_P1;HPM_P2
2023/06/19 00:01:25;;;;;;;8.75;5.68;;;;;;;24.64;51.88;100717.97;4954741;28;19914;-79
2023/06/19 00:04:17;;;;;;;7.15;5.80;;;;;;;24.68;51.65;100713.97;4959311;28;20050;-79
2023/06/19 00:07:12;;;;;;;7.82;5.90;;;;;;;24.65;52.26;100711.22;4954832;28;20042;-79
2023/06/19 00:10:04;;;;;;;8.85;6.30;;;;;;;24.46;53.01;100709.00;4956237;28;20046;-79
2023/06/19 00:12:58;;;;;;;9.38;6.10;;;;;;;24.51;52.85;100712.13;4943619;29;20042;-79
2023/06/19 00:15:53;;;;;;;9.25;6.93;;;;;;;24.32;53.34;100709.91;4957514;29;20046;-79
2023/06/19 00:18:47;;;;;;;8.02;6.35;;;;;;;24.34;53.12;100707.50;4945013;28;20054;-79
2023/06/19 00:21:42;;;;;;;10.10;6.65;;;;;;;24.33;53.40;100711.47;4956267;28;20042;-79
2023/06/19 00:24:37;;;;;;;15.98;6.97;;;;;;;24.25;53.38;100718.28;4948598;28;20046;-79
2023/06/19 00:27:31;;;;;;;9.02;6.25;;;;;;;24.10;53.87;100714.00;4964730;28;20417;-78
2023/06/19 00:30:26;;;;;;;8.40;6.65;;;;;;;24.17;53.74;100712.00;4951951;29;20046;-78
2023/06/19 00:33:21;;;;;;;12.95;8.02;;;;;;;24.26;53.16;100717.09;4959648;28;20046;-78
2023/06/19 00:36:19;;;;;;;6.88;5.25;;;;;;;24.15;53.98;100722.69;4943490;29;20066;-78
2023/06/19 00:39:14;;;;;;;7.25;4.85;;;;;;;24.41;53.25;100726.13;4938348;29;20046;-78
2023/06/19 00:42:09;;;;;;;9.90;7.32;;;;;;;24.36;52.59;100719.00;4957787;28;20038;-79
2023/06/19 00:45:03;;;;;;;15.88;8.07;;;;;;;24.24;52.71;100727.81;4957296;28;20050;-80
2023/06/19 00:48:03;;;;;;;22.02;8.32;;;;;;;24.00;53.36;100725.97;4957904;29;20054;-79
2023/06/19 00:50:57;;;;;;;14.18;6.90;;;;;;;23.95;54.08;100735.53;4958172;28;20047;-79
2023/06/19 00:53:52;;;;;;;16.48;7.50;;;;;;;24.07;53.92;100734.28;4941513;29;20047;-79
2023/06/19 00:56:46;;;;;;;11.43;7.50;;;;;;;24.12;53.88;100734.66;4956323;28;20128;-79
2023/06/19 00:59:42;;;;;;;9.02;8.07;;;;;;;24.06;53.54;100735.47;4967741;28;20054;-79
2023/06/19 01:02:37;;;;;;;10.52;7.43;;;;;;;23.95;53.68;100738.31;4977110;28;20050;-79
2023/06/19 01:05:32;;;;;;;7.15;6.45;;;;;;;24.15;53.46;100744.13;4969150;28;20052;-80
2023/06/19 01:08:46;;;;;;;11.15;8.38;;;;;;;24.01;53.16;100747.00;4951600;28;20054;-80
2023/06/19 01:11:46;;;;;;;10.90;7.38;;;;;;;23.84;54.27;100746.69;4953780;29;20062;-80
2023/06/19 01:14:57;;;;;;;9.63;7.20;;;;;;;23.84;54.62;100752.25;4955736;28;20062;-79
2023/06/19 01:17:53;;;;;;;11.48;8.45;;;;;;;24.04;53.57;100746.97;4944017;29;20043;-80
2023/06/19 01:20:48;;;;;;;18.60;8.20;;;;;;;24.21;52.55;100754.47;4959851;28;20058;-79
2023/06/19 01:23:42;;;;;;;11.55;6.88;;;;;;;24.33;52.44;100755.19;4947739;29;20438;-79
2023/06/19 01:26:37;;;;;;;9.45;7.10;;;;;;;24.44;52.40;100755.88;4946646;28;20066;-79
2023/06/19 01:29:32;;;;;;;9.30;7.30;;;;;;;24.52;51.94;100768.53;4956510;28;20046;-79
2023/06/19 01:32:31;;;;;;;14.80;9.30;;;;;;;24.31;52.28;100761.13;4960799;29;20050;-79
2023/06/19 01:35:30;;;;;;;11.25;7.70;;;;;;;24.18;53.84;100760.81;4963144;28;20425;-79
2023/06/19 01:38:26;;;;;;;11.93;8.45;;;;;;;23.99;54.45;100761.31;4955772;28;20050;-79
2023/06/19 01:41:21;;;;;;;13.82;6.80;;;;;;;23.85;54.72;100759.41;4944996;28;20046;-81
2023/06/19 01:44:16;;;;;;;11.35;7.68;;;;;;;23.81;54.94;100760.59;4949814;28;20061;-81
2023/06/19 01:47:15;;;;;;;11.25;7.72;;;;;;;23.66;54.67;100762.66;4946194;29;20074;-81
2023/06/19 01:50:11;;;;;;;16.67;9.52;;;;;;;23.53;55.41;100766.25;4952315;29;20054;-80
2023/06/19 01:53:05;;;;;;;9.95;8.52;;;;;;;23.56;55.64;100762.69;4945241;29;20054;-81
2023/06/19 01:56:00;;;;;;;11.10;8.18;;;;;;;23.41;56.39;100756.38;4965568;28;20418;-80
2023/06/19 01:58:55;;;;;;;14.00;8.32;;;;;;;23.46;55.52;100764.31;4948856;28;20054;-80
2023/06/19 02:01:49;;;;;;;10.38;8.30;;;;;;;23.62;55.28;100761.84;4959686;28;20054;-80
2023/06/19 02:04:44;;;;;;;11.98;8.38;;;;;;;23.55;55.21;100761.09;4951472;28;20070;-79
2023/06/19 02:07:38;;;;;;;20.10;8.93;;;;;;;23.68;54.75;100771.38;4960375;29;20054;-80
2023/06/19 02:10:31;;;;;;;;;;;;;;;23.27;56.42;100789.69;4963140;28;20159;-80
2023/06/19 02:13:25;;;;;;;18.27;10.10;;;;;;;23.21;56.54;100775.44;4961711;28;19914;-80
2023/06/19 02:16:20;;;;;;;21.30;10.25;;;;;;;23.11;57.29;100784.56;4940598;29;20686;-80
2023/06/19 02:19:15;;;;;;;12.15;8.60;;;;;;;23.06;57.70;100781.44;4960091;28;20043;-80
2023/06/19 02:22:06;;;;;;;12.65;10.25;;;;;;;22.99;57.44;100779.44;4959275;28;20042;-80
2023/06/19 02:25:01;;;;;;;11.07;9.45;;;;;;;22.98;57.31;100772.31;4960261;29;20047;-80
2023/06/19 02:27:53;;;;;;;16.02;9.38;;;;;;;23.05;56.96;100780.63;4949585;29;20050;-80
2023/06/19 02:30:47;;;;;;;15.43;8.98;;;;;;;23.30;56.54;100786.94;4943886;28;20066;-78
2023/06/19 02:33:42;;;;;;;13.52;10.43;;;;;;;23.37;56.43;100786.09;4958958;29;20046;-78
2023/06/19 02:36:37;;;;;;;10.57;8.85;;;;;;;23.20;56.48;100782.19;4950697;28;20043;-78
2023/06/19 02:39:33;;;;;;;16.73;10.70;;;;;;;23.17;56.15;100776.63;4945498;29;20529;-80
2023/06/19 02:42:28;;;;;;;15.63;9.07;;;;;;;22.99;57.21;100777.47;4948481;29;20035;-80
2023/06/19 02:45:22;;;;;;;15.63;8.40;;;;;;;23.07;57.42;100781.00;4959899;28;20058;-80
2023/06/19 02:48:17;;;;;;;14.77;8.73;;;;;;;23.02;57.73;100778.63;4948724;28;20046;-79
2023/06/19 02:51:12;;;;;;;13.32;9.98;;;;;;;22.97;57.88;100779.84;4947383;28;20061;-80
2023/06/19 02:54:06;;;;;;;16.30;9.90;;;;;;;23.19;57.32;100777.03;4957626;28;20046;-80
2023/06/19 02:57:01;;;;;;;13.80;8.93;;;;;;;23.22;56.92;100771.47;4948899;29;20050;-79
2023/06/19 02:59:56;;;;;;;12.45;9.57;;;;;;;23.14;56.65;100789.34;4959939;28;20062;-80
2023/06/19 03:02:50;;;;;;;14.43;10.02;;;;;;;23.13;56.40;100782.19;4949315;28;20054;-80
2023/06/19 03:05:45;;;;;;;13.93;9.77;;;;;;;23.11;56.74;100789.34;4958683;29;20043;-80
2023/06/19 03:08:41;;;;;;;11.95;9.32;;;;;;;23.03;56.19;100785.78;4943704;28;20418;-79
2023/06/19 03:11:35;;;;;;;14.90;10.98;;;;;;;22.85;57.92;100785.00;4951636;28;20070;-79
2023/06/19 03:14:27;;;;;;;12.95;10.65;;;;;;;22.84;57.80;100781.44;4940799;29;20043;-79
2023/06/19 03:17:22;;;;;;;16.30;11.25;;;;;;;22.73;57.44;100788.97;4956548;28;20043;-78
2023/06/19 03:20:17;;;;;;;11.75;9.50;;;;;;;22.74;57.79;100792.53;4974254;23;20043;-80
2023/06/19 03:23:16;;;;;;;13.30;9.30;;;;;;;22.76;57.91;100799.25;4961893;28;20055;-79
2023/06/19 03:26:11;;;;;;;14.40;10.88;;;;;;;22.76;57.37;100796.47;4949069;28;20051;-79
2023/06/19 03:29:05;;;;;;;17.23;11.05;;;;;;;22.59;58.04;100786.97;4960610;28;20043;-85
2023/06/19 03:32:20;;;;;;;16.92;10.63;;;;;;;22.56;58.03;100790.50;4944592;28;20526;-85
2023/06/19 03:35:15;;;;;;;15.45;10.50;;;;;;;22.59;58.00;100800.03;4930198;28;20039;-82
2023/06/19 03:38:09;;;;;;;18.65;13.00;;;;;;;22.64;57.78;100801.59;4929939;29;20052;-83
2023/06/19 03:41:04;;;;;;;15.48;11.10;;;;;;;22.70;58.06;100794.50;4933136;29;20048;-83
2023/06/19 03:43:58;;;;;;;23.30;11.77;;;;;;;22.75;57.59;100802.44;4948412;28;20411;-84
2023/06/19 03:46:51;;;;;;;20.05;11.68;;;;;;;22.72;57.97;100808.75;4931218;28;20048;-81
2023/06/19 03:49:43;;;;;;;22.05;12.40;;;;;;;22.60;58.94;100804.38;4949778;28;20052;-83
2023/06/19 03:52:38;;;;;;;21.83;12.27;;;;;;;22.61;58.58;100800.41;4941146;29;20047;-83
2023/06/19 03:55:31;;;;;;;15.32;10.77;;;;;;;22.53;59.45;100798.81;4936865;29;20039;-84
2023/06/19 03:58:26;;;;;;;21.83;12.90;;;;;;;22.46;59.12;100812.66;4950170;28;20047;-84
2023/06/19 04:01:18;;;;;;;24.40;12.15;;;;;;;22.38;59.65;100811.06;4930188;29;20032;-83
2023/06/19 04:04:14;;;;;;;15.70;11.10;;;;;;;22.32;60.67;100805.13;4920059;29;20052;-83
2023/06/19 04:07:08;;;;;;;23.58;10.40;;;;;;;22.38;60.62;100806.31;4937313;29;20036;-84
2023/06/19 04:10:04;;;;;;;16.70;12.50;;;;;;;22.54;59.40;100808.72;4955080;28;20035;-83
2023/06/19 04:12:58;;;;;;;18.48;11.13;;;;;;;22.62;59.34;100813.09;4956434;28;20047;-84
2023/06/19 04:15:56;;;;;;;16.85;11.63;;;;;;;22.62;59.13;100807.53;4951790;28;20043;-84
2023/06/19 04:19:06;;;;;;;18.20;10.15;;;;;;;22.38;60.67;100799.97;4950873;28;20438;-83
2023/06/19 04:22:01;;;;;;;14.23;10.23;;;;;;;22.32;60.98;100791.25;4945666;28;20043;-81
2023/06/19 04:24:56;;;;;;;70.38;12.50;;;;;;;22.31;61.24;100788.88;4937455;28;20426;-80
2023/06/19 04:27:51;;;;;;;16.75;10.07;;;;;;;22.41;61.10;100799.97;4951880;28;20044;-79
2023/06/19 04:30:45;;;;;;;14.05;10.68;;;;;;;22.52;61.12;100798.03;4950993;28;20043;-82
2023/06/19 04:33:40;;;;;;;20.95;11.35;;;;;;;22.57;60.84;100797.63;4951361;28;20044;-80
2023/06/19 04:36:32;;;;;;;14.05;10.25;;;;;;;22.72;60.62;100801.22;4935236;29;20043;-80
2023/06/19 04:39:26;;;;;;;17.58;11.13;;;;;;;22.78;60.49;100801.63;4933260;29;20580;-80
2023/06/19 04:42:21;;;;;;;23.33;10.85;;;;;;;22.73;60.66;100802.03;4936692;29;20036;-79
2023/06/19 04:45:14;;;;;;;25.38;11.57;;;;;;;22.77;60.44;100803.63;4931600;29;20040;-79
2023/06/19 04:48:09;;;;;;;15.18;10.88;;;;;;;22.82;60.32;100803.22;4937880;29;20039;-80
2023/06/19 04:51:01;;;;;;;20.05;10.50;;;;;;;22.86;60.57;100804.00;4938581;29;20735;-80
2023/06/19 04:53:55;;;;;;;13.60;10.57;;;;;;;22.86;60.97;100804.00;4939793;29;20036;-79
2023/06/19 04:56:49;;;;;;;15.43;10.80;;;;;;;22.99;60.37;100807.19;4937059;29;20040;-81
2023/06/19 04:59:44;;;;;;;11.77;9.30;;;;;;;23.12;60.20;100804.78;4936431;29;20043;-82
2023/06/19 05:02:39;;;;;;;17.42;11.18;;;;;;;23.07;60.27;100807.97;4951528;28;20043;-79
2023/06/19 05:05:33;;;;;;;16.35;10.60;;;;;;;23.09;60.26;100800.84;4920193;29;20044;-79
2023/06/19 05:08:28;;;;;;;15.40;10.13;;;;;;;23.28;60.21;100802.38;4947576;28;20051;-78
2023/06/19 05:11:22;;;;;;;17.58;11.20;;;;;;;23.27;59.65;100803.56;4943977;28;20039;-78
2023/06/19 05:14:14;;;;;;;12.98;10.82;;;;;;;23.28;59.98;100803.19;4929060;29;20506;-80
2023/06/19 05:17:09;;;;;;;23.02;10.20;;;;;;;23.43;59.77;100803.94;4935697;29;20031;-78
2023/06/19 05:20:03;;;;;;;18.10;11.60;;;;;;;23.49;59.48;100807.13;4940706;28;20509;-77
2023/06/19 05:22:58;;;;;;;17.77;11.52;;;;;;;23.50;59.22;100809.50;4941861;28;20039;-80
2023/06/19 05:25:53;;;;;;;37.95;11.60;;;;;;;23.55;58.90;100817.44;4938803;28;20418;-79
2023/06/19 05:28:47;;;;;;;21.27;12.15;;;;;;;23.62;58.85;100809.06;4938403;29;20047;-82
2023/06/19 05:31:39;;;;;;;30.23;13.55;;;;;;;23.68;58.50;100815.00;4939172;28;20043;-80
2023/06/19 05:34:34;;;;;;;18.00;13.38;;;;;;;23.72;58.45;100810.25;4938763;28;20426;-80
2023/06/19 05:37:28;;;;;;;21.27;13.98;;;;;;;23.69;57.92;100806.28;4944948;28;20495;-81
2023/06/19 05:40:19;;;;;;;21.80;13.35;;;;;;;23.77;58.13;100807.81;4952957;28;20047;-82
2023/06/19 05:43:13;;;;;;;23.85;16.15;;;;;;;23.80;57.59;100809.81;4953217;28;20051;-82
2023/06/19 05:46:08;;;;;;;23.33;16.60;;;;;;;23.80;57.39;100807.03;4963214;28;20039;-81
2023/06/19 05:49:03;;;;;;;31.10;15.73;;;;;;;23.85;57.29;100812.16;4956685;29;20494;-81
2023/06/19 05:51:58;;;;;;;22.60;16.40;;;;;;;23.95;56.48;100816.09;4942687;29;20043;-81
2023/06/19 05:54:53;;;;;;;28.45;17.40;;;;;;;23.96;56.35;100814.13;4959854;28;20035;-82
2023/06/19 05:57:47;;;;;;;27.90;20.52;;;;;;;23.97;55.96;100810.16;4971223;28;20043;-82
2023/06/19 06:00:42;;;;;;;27.98;15.60;;;;;;;24.01;56.18;100805.34;4967781;28;20043;-80
2023/06/19 06:03:36;;;;;;;25.83;19.35;;;;;;;23.97;55.75;100808.16;4956220;29;20039;-80
2023/06/19 06:06:31;;;;;;;25.17;19.33;;;;;;;23.97;55.73;100810.16;4954942;28;20039;-79
2023/06/19 06:09:23;;;;;;;27.83;18.95;;;;;;;24.03;55.55;100808.50;4959237;28;20043;-81
2023/06/19 06:12:18;;;;;;;26.63;19.80;;;;;;;24.07;55.51;100812.09;4973995;28;20051;-80
2023/06/19 06:15:12;;;;;;;26.75;19.98;;;;;;;24.08;55.64;100819.19;4966141;28;20070;-81
2023/06/19 06:18:04;;;;;;;22.92;17.85;;;;;;;24.11;55.11;100816.41;4967349;28;20043;-82
2023/06/19 06:20:59;;;;;;;24.10;16.23;;;;;;;24.14;55.01;100812.03;4942319;29;20039;-79
2023/06/19 06:23:54;;;;;;;19.50;12.20;;;;;;;24.29;55.24;100810.78;4959145;28;20043;-78
2023/06/19 06:26:46;;;;;;;19.58;15.40;;;;;;;24.37;54.39;100812.34;4957214;28;20039;-77
2023/06/19 06:29:40;;;;;;;25.70;16.63;;;;;;;24.36;54.54;100805.19;4955445;28;20052;-78
2023/06/19 06:32:35;;;;;;;17.85;13.88;;;;;;;24.41;54.83;100806.75;4952620;28;20047;-77
2023/06/19 06:35:29;;;;;;;23.00;14.38;;;;;;;24.46;54.36;100806.31;4955749;29;20591;-77
2023/06/19 06:38:24;;;;;;;21.73;14.63;;;;;;;24.48;54.16;100803.94;4955773;29;20402;-79
2023/06/19 06:41:18;;;;;;;22.00;15.88;;;;;;;24.59;54.35;100797.06;4955540;29;20039;-78
2023/06/19 06:44:10;;;;;;;20.90;14.23;;;;;;;24.59;53.62;100787.94;4944002;28;20027;-77
2023/06/19 06:47:05;;;;;;;21.70;14.48;;;;;;;24.66;53.91;100791.47;4963201;28;20050;-79
2023/06/19 06:49:57;;;;;;;14.43;9.80;;;;;;;24.68;54.21;100794.66;4956033;28;20035;-80
2023/06/19 06:52:52;;;;;;;18.20;13.05;;;;;;;24.81;53.79;100796.91;4947329;28;20054;-80
2023/06/19 06:55:47;;;;;;;16.90;12.75;;;;;;;24.80;53.62;100782.22;4957130;28;20046;-82
2023/06/19 06:58:39;;;;;;;23.33;15.73;;;;;;;24.74;53.37;100794.19;4954376;28;20422;-81
2023/06/19 07:01:33;;;;;;;18.70;11.13;;;;;;;24.83;53.60;100800.09;4958988;28;20031;-81
2023/06/19 07:04:28;;;;;;;22.23;15.43;;;;;;;24.81;53.25;100794.91;4970088;28;20047;-82
2023/06/19 07:07:20;;;;;;;25.25;16.38;;;;;;;24.84;53.38;100790.53;4969368;28;20042;-79
2023/06/19 07:10:15;;;;;;;21.90;14.85;;;;;;;24.84;53.59;100785.75;4964095;28;20043;-80
2023/06/19 07:13:09;;;;;;;21.00;15.15;;;;;;;24.87;53.24;100792.50;4953367;28;20035;-80
2023/06/19 07:16:04;;;;;;;16.98;12.10;;;;;;;24.94;53.37;100790.44;4960933;28;20494;-81
2023/06/19 07:18:59;;;;;;;15.50;10.52;;;;;;;25.01;53.28;100787.63;4946930;28;20047;-80
2023/06/19 07:21:54;;;;;;;16.75;13.50;;;;;;;25.04;53.34;100783.22;4954942;29;20102;-79
2023/06/19 07:24:48;;;;;;;15.70;11.23;;;;;;;25.12;52.69;100784.75;4956746;28;20502;-79
2023/06/19 07:27:44;;;;;;;15.98;10.80;;;;;;;25.15;53.03;100792.25;4954891;28;20042;-78
2023/06/19 07:30:38;;;;;;;15.00;9.75;;;;;;;25.17;52.65;100787.06;4942866;29;20039;-78
2023/06/19 07:33:33;;;;;;;17.60;9.75;;;;;;;25.19;52.37;100784.69;4952859;28;20055;-79
2023/06/19 07:36:29;;;;;;;11.57;7.95;;;;;;;25.24;52.07;100781.44;4948349;29;20055;-78
2023/06/19 07:39:23;;;;;;;16.98;11.60;;;;;;;25.32;51.35;100788.50;4950704;28;20050;-78
2023/06/19 07:42:16;;;;;;;;;;;;;;;25.42;51.69;100804.31;4954714;28;20039;-80
2023/06/19 07:45:12;;;;;;;10.38;7.80;;;;;;;25.41;51.56;100796.38;4944178;29;19914;-80
2023/06/19 07:48:06;;;;;;;12.48;8.20;;;;;;;25.46;51.96;100807.84;4950701;28;20050;-79
2023/06/19 07:50:54;;;;;;;10.52;8.68;;;;;;;25.53;51.81;100802.19;4942502;28;20054;-81
2023/06/19 07:53:46;;;;;;;15.85;9.68;;;;;;;25.56;52.10;100795.03;4956657;28;20054;-81
2023/06/19 07:56:40;;;;;;;12.00;9.48;;;;;;;25.59;51.99;100796.22;4950596;28;20046;-85
2023/06/19 07:59:30;;;;;;;16.13;10.85;;;;;;;25.65;51.53;100802.91;4946851;28;20054;-84
2023/06/19 08:02:22;;;;;;;14.63;10.57;;;;;;;25.46;52.24;100807.03;4957244;28;20035;-84
2023/06/19 08:05:17;;;;;;;13.57;10.95;;;;;;;25.49;53.03;100809.81;4960319;28;20035;-82
2023/06/19 08:08:11;;;;;;;19.60;10.13;;;;;;;25.48;53.59;100813.78;4965329;28;20047;-86
2023/06/19 08:11:03;;;;;;;23.92;12.05;;;;;;;25.47;53.45;100812.22;4953389;29;20047;-86
2023/06/19 08:13:57;;;;;;;17.50;12.55;;;;;;;25.57;53.13;100823.66;4963798;28;20043;-78
2023/06/19 08:16:52;;;;;;;18.75;12.25;;;;;;;25.61;52.91;100822.44;4954226;28;20043;-79
2023/06/19 08:19:47;;;;;;;18.42;12.63;;;;;;;25.76;52.41;100829.41;4939899;28;20418;-78
2023/06/19 08:22:41;;;;;;;18.02;12.40;;;;;;;25.71;52.87;100829.06;4953647;29;20039;-77
2023/06/19 08:25:36;;;;;;;23.77;14.05;;;;;;;25.71;53.39;100827.09;4936145;29;20422;-77
2023/06/19 08:28:30;;;;;;;17.08;12.40;;;;;;;25.59;52.98;100829.63;4941608;29;20043;-82
2023/06/19 08:31:27;;;;;;;22.08;13.43;;;;;;;25.64;53.37;100837.53;4947534;29;20414;-78
2023/06/19 08:34:22;;;;;;;20.17;13.15;;;;;;;25.78;53.29;100829.00;4947317;28;20044;-79
2023/06/19 08:37:17;;;;;;;15.63;10.57;;;;;;;25.84;52.98;100841.28;4955852;28;20043;-80
2023/06/19 08:40:13;;;;;;;17.92;11.70;;;;;;;25.86;52.20;100838.84;4940774;29;20047;-80
2023/06/19 08:43:08;;;;;;;14.20;11.45;;;;;;;25.90;52.46;100831.25;4957867;29;20043;-79
2023/06/19 08:46:13;;;;;;;17.75;11.23;;;;;;;25.88;52.52;100831.66;4949520;28;20035;-82
2023/06/19 08:49:07;;;;;;;13.63;8.82;;;;;;;25.80;52.79;100840.53;4954788;28;20513;-78
2023/06/19 08:52:02;;;;;;;18.45;10.65;;;;;;;25.82;52.88;100843.69;4950831;28;20058;-78
2023/06/19 08:54:56;;;;;;;18.77;13.77;;;;;;;25.89;52.67;100838.81;4958489;28;20043;-79
2023/06/19 08:57:52;;;;;;;16.67;9.57;;;;;;;25.88;52.72;100836.44;4955795;28;20039;-79
2023/06/19 09:00:49;;;;;;;19.02;13.10;;;;;;;25.86;52.71;100838.84;4952919;28;20050;-79
2023/06/19 09:03:44;;;;;;;14.45;11.07;;;;;;;25.88;52.66;100825.31;4961719;28;20035;-78
2023/06/19 09:06:37;;;;;;;;;;;;;;;25.92;52.30;100837.19;4972039;28;20039;-78
2023/06/19 09:09:32;;;;;;;12.38;9.93;;;;;;;25.89;52.32;100827.69;4969984;28;19922;-79
2023/06/19 09:12:24;;;;;;;19.92;10.20;;;;;;;25.95;52.28;100825.22;4964933;28;20528;-80
2023/06/19 09:15:23;;;;;;;18.27;13.05;;;;;;;25.96;52.29;100822.00;4965591;28;20043;-80
2023/06/19 09:18:18;;;;;;;12.57;9.05;;;;;;;25.98;52.22;100816.81;4965282;28;20594;-79
2023/06/19 09:21:16;;;;;;;13.10;8.90;;;;;;;26.02;52.02;100819.53;4997312;23;20528;-81
2023/06/19 09:24:12;;;;;;;14.85;8.50;;;;;;;25.97;52.66;100829.16;4963055;29;20046;-81
2023/06/19 09:27:27;;;;;;;12.57;9.18;;;;;;;26.03;52.43;100826.69;4978361;28;20042;-81
2023/06/19 09:30:20;;;;;;;11.35;9.10;;;;;;;26.02;52.09;100825.13;4962973;29;20054;-81
2023/06/19 09:33:13;;;;;;;17.80;9.10;;;;;;;25.94;52.54;100826.44;4978873;28;20050;-81
2023/06/19 09:36:06;;;;;;;20.83;7.93;;;;;;;25.89;52.58;100816.53;4977120;28;20050;-81
2023/06/19 09:38:59;;;;;;;13.77;7.45;;;;;;;25.93;52.56;100820.06;4967406;29;20116;-81
2023/06/19 09:41:53;;;;;;;17.45;11.18;;;;;;;26.01;52.27;100814.41;4965146;28;20058;-81
2023/06/19 09:44:43;;;;;;;14.70;7.88;;;;;;;25.99;51.99;100814.81;4978752;28;20043;-81
2023/06/19 09:47:45;;;;;;;19.23;8.63;;;;;;;25.99;52.16;100817.59;4966243;29;20070;-81
2023/06/19 09:50:41;;;;;;;14.32;8.32;;;;;;;25.95;52.24;100811.28;4965777;28;20046;-81
2023/06/19 09:53:37;;;;;;;13.00;7.78;;;;;;;25.97;52.13;100817.22;4962935;29;20050;-81
2023/06/19 09:56:29;;;;;;;12.55;8.25;;;;;;;26.04;51.50;100813.56;4956049;29;20528;-81
2023/06/19 09:59:22;;;;;;;9.30;6.90;;;;;;;26.06;51.51;100820.28;4966908;29;20429;-81
2023/06/19 10:02:33;;;;;;;12.50;7.35;;;;;;;26.01;51.58;100829.09;4961459;29;20050;-81
2023/06/19 10:05:35;;;;;;;12.45;7.20;;;;;;;25.95;51.50;100831.59;4979786;28;20515;-81
2023/06/19 10:08:30;;;;;;;14.15;7.07;;;;;;;25.97;51.57;100822.78;4959235;28;20063;-80
2023/06/19 10:11:25;;;;;;;12.18;7.15;;;;;;;25.97;51.00;100829.16;4966610;28;20131;-81
2023/06/19 10:14:18;;;;;;;;;;;;;;;26.01;51.26;100823.53;4966565;29;20062;-81
2023/06/19 10:17:18;;;;;;;17.35;6.95;;;;;;;25.94;51.11;100821.66;4969616;28;19918;-81
2023/06/19 10:20:21;;;;;;;9.50;4.97;;;;;;;25.98;51.17;100825.16;4979345;28;20054;-81
2023/06/19 10:23:22;;;;;;;8.43;6.03;;;;;;;26.03;50.56;100818.34;4983737;28;20049;-81
2023/06/19 10:26:21;;;;;;;8.60;5.60;;;;;;;26.12;50.44;100815.03;4984743;28;20046;-81
2023/06/19 10:29:21;;;;;;;6.28;4.85;;;;;;;26.09;50.67;100818.66;4987801;28;20054;-80
2023/06/19 10:32:16;;;;;;;7.32;5.47;;;;;;;26.06;50.53;100820.28;4995357;28;20046;-81
2023/06/19 10:35:15;;;;;;;7.22;4.80;;;;;;;26.08;49.21;100819.88;4982678;28;20054;-81
2023/06/19 10:38:09;;;;;;;7.25;5.28;;;;;;;26.15;49.52;100817.00;4982471;28;20429;-81
2023/06/19 10:41:04;;;;;;;7.93;4.55;;;;;;;26.20;48.70;100810.97;4984416;28;20049;-82
2023/06/19 10:44:12;;;;;;;11.68;4.75;;;;;;;26.24;49.12;100809.72;4984695;28;20054;-81
2023/06/19 10:47:07;;;;;;;9.05;5.10;;;;;;;26.22;49.19;100803.75;4984774;28;20049;-82
2023/06/19 10:49:57;;;;;;;;;;;;;;;26.25;48.27;100811.31;4996821;28;20046;-81
2023/06/19 10:52:54;;;;;;;4.85;4.13;;;;;;;26.30;48.37;100813.63;4985522;28;19934;-81
2023/06/19 10:55:49;;;;;;;15.10;5.47;;;;;;;26.24;48.29;100809.72;4997259;28;20045;-81
2023/06/19 10:58:44;;;;;;;6.28;3.95;;;;;;;26.27;48.22;100808.88;5000797;28;20054;-81
2023/06/19 11:01:43;;;;;;;6.38;5.18;;;;;;;26.35;47.78;100806.78;4982992;28;20058;-82
2023/06/19 11:04:39;;;;;;;7.72;4.32;;;;;;;26.37;47.76;100805.13;4991691;28;20050;-81
2023/06/19 11:07:36;;;;;;;10.73;4.63;;;;;;;26.31;48.13;100798.44;4984509;28;20539;-82
2023/06/19 11:10:32;;;;;;;7.45;4.35;;;;;;;26.25;48.27;100804.94;4976952;28;20456;-81
2023/06/19 11:13:24;;;;;;;8.55;4.30;;;;;;;26.27;47.91;100800.50;4978705;28;20054;-81
2023/06/19 11:16:43;;;;;;;11.98;8.82;;;;;;;26.42;46.89;100786.34;4980099;28;20424;-80
2023/06/19 11:19:38;;;;;;;8.25;4.88;;;;;;;26.47;47.22;100799.81;4984057;28;20046;-80
2023/06/19 11:22:41;;;;;;;5.45;4.75;;;;;;;26.41;47.47;100790.38;4964404;28;20116;-81
2023/06/19 11:25:48;;;;;;;8.63;5.40;;;;;;;26.34;47.52;100789.25;4977456;28;20457;-81
2023/06/19 11:28:42;;;;;;;8.68;6.88;;;;;;;26.32;47.25;100782.50;4978257;28;20050;-82
2023/06/19 11:31:35;;;;;;;15.13;6.53;;;;;;;26.33;47.78;100787.69;4970444;28;20045;-81
2023/06/19 11:34:36;;;;;;;9.25;5.35;;;;;;;26.44;47.21;100787.53;4973701;28;20050;-81
2023/06/19 11:37:35;;;;;;;10.68;5.63;;;;;;;26.48;47.33;100788.25;4963505;28;20054;-82
2023/06/19 11:40:30;;;;;;;7.30;5.15;;;;;;;26.46;47.09;100781.53;4977085;28;20053;-82
2023/06/19 11:43:29;;;;;;;;;;;;;;;26.44;47.29;100778.34;4977877;28;20037;-82
2023/06/19 11:46:21;;;;;;;12.43;5.40;;;;;;;26.47;46.43;100777.50;4982477;28;20532;-81
2023/06/19 11:49:19;;;;;;;10.88;5.70;;;;;;;26.52;46.21;100769.44;4992264;28;20241;-82
2023/06/19 11:52:11;;;;;;;8.02;5.97;;;;;;;26.56;46.60;100769.41;4977349;28;20505;-82
2023/06/19 11:55:05;;;;;;;6.63;4.57;;;;;;;26.53;46.30;100773.03;4977182;28;20058;-82
2023/06/19 11:57:53;;;;;;;11.48;4.57;;;;;;;26.59;46.50;100765.75;4978636;28;20050;-81
2023/06/19 12:00:45;;;;;;;7.50;4.60;;;;;;;26.67;45.67;100758.84;4987139;28;20563;-82
2023/06/19 12:03:39;;;;;;;6.50;4.10;;;;;;;26.66;46.26;100757.28;4978511;28;20050;-81
2023/06/19 12:06:35;;;;;;;7.30;3.85;;;;;;;26.60;46.41;100754.19;4991470;28;20059;-82
2023/06/19 12:09:27;;;;;;;;;;;;;;;26.59;46.32;100751.81;4995355;28;20054;-82
2023/06/19 12:12:22;;;;;;;9.93;4.45;;;;;;;26.57;46.13;100743.88;4978394;28;20296;-80
2023/06/19 12:15:15;;;;;;;8.05;4.07;;;;;;;26.59;46.09;100746.25;4967620;28;20042;-81
2023/06/19 12:18:10;;;;;;;4.43;3.88;;;;;;;26.59;46.07;100740.66;4976015;28;20050;-81
2023/06/19 12:21:05;;;;;;;4.47;4.07;;;;;;;26.67;45.33;100736.53;4962677;28;20053;-81
2023/06/19 12:23:59;;;;;;;5.80;3.40;;;;;;;26.76;45.25;100728.41;4977181;28;20046;-82
2023/06/19 12:26:52;;;;;;;6.93;3.30;;;;;;;26.99;44.44;100733.19;4979668;28;20150;-81
2023/06/19 12:29:46;;;;;;;8.77;4.30;;;;;;;26.94;44.78;100726.13;4975238;28;20050;-81
2023/06/19 12:32:39;;;;;;;6.68;3.80;;;;;;;26.87;45.40;100731.81;4979511;28;20054;-81
2023/06/19 12:35:33;;;;;;;4.25;3.00;;;;;;;26.81;45.59;100725.13;4976163;28;20045;-81
2023/06/19 12:38:25;;;;;;;4.13;3.72;;;;;;;26.90;45.15;100721.81;4974263;28;20054;-81
2023/06/19 12:41:21;;;;;;;6.32;3.50;;;;;;;26.83;45.46;100728.28;4976191;28;20042;-81
2023/06/19 12:44:13;;;;;;;4.68;3.03;;;;;;;26.87;45.70;100723.44;4975229;28;20054;-81
2023/06/19 12:47:25;;;;;;;5.57;3.42;;;;;;;26.94;45.26;100723.31;4969868;28;20069;-81
2023/06/19 12:50:21;;;;;;;5.07;3.72;;;;;;;26.90;45.67;100711.44;4988446;28;20058;-81
2023/06/19 12:53:14;;;;;;;7.88;3.90;;;;;;;26.88;45.49;100716.66;4964572;28;20042;-81
2023/06/19 12:56:10;;;;;;;7.15;3.25;;;;;;;26.88;44.98;100713.84;4977976;28;20058;-81
2023/06/19 12:59:02;;;;;;;4.57;3.58;;;;;;;26.93;45.22;100720.94;4981716;28;20046;-82
2023/06/19 13:01:54;;;;;;;4.85;2.80;;;;;;;26.97;45.21;100721.69;5011579;28;20049;-82
2023/06/19 13:04:48;;;;;;;3.80;3.30;;;;;;;26.92;45.53;100702.66;4995207;28;20037;-81
2023/06/19 13:07:43;;;;;;;5.47;3.22;;;;;;;26.88;45.59;100713.06;5013111;28;20046;-81
2023/06/19 13:10:35;;;;;;;;;;;;;;;26.93;45.17;100710.56;4995508;28;20104;-81
2023/06/19 13:13:29;;;;;;;3.65;2.80;;;;;;;26.94;45.28;100706.56;5007763;28;19918;-81
2023/06/19 13:16:25;;;;;;;4.03;3.33;;;;;;;26.96;45.47;100709.75;5000582;28;20045;-82
2023/06/19 13:19:20;;;;;;;7.93;3.28;;;;;;;27.06;45.14;100705.97;5011277;28;20535;-81
2023/06/19 13:22:12;;;;;;;;;;;;;;;27.03;45.60;100715.16;4980961;28;20058;-80
2023/06/19 13:25:03;;;;;;;7.68;2.80;;;;;;;27.06;45.49;100708.75;4991491;28;19918;-81
2023/06/19 13:27:56;;;;;;;8.27;3.13;;;;;;;27.10;45.56;100703.88;4978925;28;20404;-80